sensor_id;sensor_type;location;lat;lon;timestamp;P1;durP1;ratioP1;P2;durP2;ratioP2
17993;SDS011;9122;48.406;9.984;2023-08-06T00:00:34;7.13;;;5.63;;
17993;SDS011;9122;48.406;9.984;2023-08-06T00:03:19;5.13;;;4.73;;
17993;SDS011;9122;48.406;9.984;2023-08-06T00:06:06;5.43;;;4.90;;
17993;SDS011;9122;48.406;9.984;2023-08-06T00:08:51;6.50;;;5.90;;
17993;SDS011;9122;48.406;9.984;2023-08-06T00:11:35;5.90;;;5.50;;
17993;SDS011;9122;48.406;9.984;2023-08-06T00:14:19;5.27;;;4.77;;
17993;SDS011;9122;48.406;9.984;2023-08-06T00:17:04;5.50;;;5.00;;
17993;SDS011;9122;48.406;9.984;2023-08-06T00:19:48;6.20;;;5.70;;
17993;SDS011;9122;48.406;9.984;2023-08-06T00:22:33;5.93;;;5.47;;
17993;SDS011;9122;48.406;9.984;2023-08-06T00:25:21;5.87;;;5.37;;
17993;SDS011;9122;48.406;9.984;2023-08-06T00:28:05;6.53;;;5.93;;
17993;SDS011;9122;48.406;9.984;2023-08-06T00:30:53;4.97;;;4.60;;
17993;SDS011;9122;48.406;9.984;2023-08-06T00:33:38;5.80;;;5.27;;
17993;SDS011;9122;48.406;9.984;2023-08-06T00:36:23;5.33;;;4.83;;
17993;SDS011;9122;48.406;9.984;2023-08-06T00:39:07;5.30;;;4.90;;
17993;SDS011;9122;48.406;9.984;2023-08-06T00:41:52;6.00;;;5.43;;
17993;SDS011;9122;48.406;9.984;2023-08-06T00:44:37;5.03;;;4.73;;
17993;SDS011;9122;48.406;9.984;2023-08-06T00:47:22;5.27;;;4.83;;
17993;SDS011;9122;48.406;9.984;2023-08-06T00:50:07;4.97;;;4.57;;
17993;SDS011;9122;48.406;9.984;2023-08-06T00:52:52;5.10;;;4.70;;
17993;SDS011;9122;48.406;9.984;2023-08-06T00:55:37;5.10;;;4.70;;
17993;SDS011;9122;48.406;9.984;2023-08-06T00:58:21;5.63;;;5.13;;
17993;SDS011;9122;48.406;9.984;2023-08-06T01:01:06;5.20;;;4.80;;
17993;SDS011;9122;48.406;9.984;2023-08-06T01:03:51;5.53;;;5.03;;
17993;SDS011;9122;48.406;9.984;2023-08-06T01:12:48;5.07;;;4.63;;
17993;SDS011;9122;48.406;9.984;2023-08-06T01:15:47;4.57;;;4.20;;
17993;SDS011;9122;48.406;9.984;2023-08-06T01:18:34;5.57;;;5.07;;
17993;SDS011;9122;48.406;9.984;2023-08-06T01:21:20;4.80;;;4.40;;
17993;SDS011;9122;48.406;9.984;2023-08-06T01:24:05;5.50;;;5.00;;
17993;SDS011;9122;48.406;9.984;2023-08-06T01:29:59;4.80;;;4.40;;
17993;SDS011;9122;48.406;9.984;2023-08-06T01:33:16;5.40;;;4.90;;
17993;SDS011;9122;48.406;9.984;2023-08-06T01:36:05;5.00;;;4.60;;
17993;SDS011;9122;48.406;9.984;2023-08-06T01:38:53;4.97;;;4.63;;
17993;SDS011;9122;48.406;9.984;2023-08-06T01:41:38;4.23;;;3.93;;
17993;SDS011;9122;48.406;9.984;2023-08-06T01:44:22;4.90;;;4.50;;
17993;SDS011;9122;48.406;9.984;2023-08-06T01:47:07;4.80;;;4.40;;
17993;SDS011;9122;48.406;9.984;2023-08-06T01:49:51;3.97;;;3.67;;
17993;SDS011;9122;48.406;9.984;2023-08-06T01:52:36;3.83;;;3.53;;
17993;SDS011;9122;48.406;9.984;2023-08-06T01:55:20;4.30;;;4.00;;
17993;SDS011;9122;48.406;9.984;2023-08-06T01:58:04;3.90;;;3.60;;
17993;SDS011;9122;48.406;9.984;2023-08-06T02:00:48;3.87;;;3.57;;
17993;SDS011;9122;48.406;9.984;2023-08-06T02:03:33;3.83;;;3.53;;
17993;SDS011;9122;48.406;9.984;2023-08-06T02:06:17;3.23;;;3.03;;
17993;SDS011;9122;48.406;9.984;2023-08-06T02:09:02;4.40;;;4.10;;
17993;SDS011;9122;48.406;9.984;2023-08-06T02:11:47;4.13;;;3.87;;
17993;SDS011;9122;48.406;9.984;2023-08-06T02:14:31;3.20;;;3.00;;
17993;SDS011;9122;48.406;9.984;2023-08-06T02:17:16;3.47;;;3.27;;
17993;SDS011;9122;48.406;9.984;2023-08-06T02:20:00;4.60;;;3.43;;
17993;SDS011;9122;48.406;9.984;2023-08-06T02:22:45;3.73;;;3.47;;
17993;SDS011;9122;48.406;9.984;2023-08-06T02:25:33;4.13;;;3.80;;
17993;SDS011;9122;48.406;9.984;2023-08-06T02:28:17;3.40;;;3.20;;
17993;SDS011;9122;48.406;9.984;2023-08-06T02:31:02;3.97;;;3.70;;
17993;SDS011;9122;48.406;9.984;2023-08-06T02:33:46;3.70;;;3.50;;
17993;SDS011;9122;48.406;9.984;2023-08-06T02:36:30;3.93;;;3.63;;
17993;SDS011;9122;48.406;9.984;2023-08-06T02:39:15;3.93;;;3.63;;
17993;SDS011;9122;48.406;9.984;2023-08-06T02:41:59;4.90;;;4.20;;
17993;SDS011;9122;48.406;9.984;2023-08-06T02:44:43;3.90;;;3.60;;
17993;SDS011;9122;48.406;9.984;2023-08-06T02:47:28;4.07;;;3.67;;
17993;SDS011;9122;48.406;9.984;2023-08-06T02:50:12;3.40;;;3.20;;
17993;SDS011;9122;48.406;9.984;2023-08-06T02:52:57;4.17;;;3.83;;
17993;SDS011;9122;48.406;9.984;2023-08-06T02:55:45;6.00;;;3.67;;
17993;SDS011;9122;48.406;9.984;2023-08-06T02:58:34;4.37;;;3.53;;
17993;SDS011;9122;48.406;9.984;2023-08-06T03:01:18;3.80;;;3.57;;
17993;SDS011;9122;48.406;9.984;2023-08-06T03:04:03;3.93;;;3.53;;
17993;SDS011;9122;48.406;9.984;2023-08-06T03:06:51;3.53;;;3.33;;
17993;SDS011;9122;48.406;9.984;2023-08-06T03:09:35;4.67;;;4.10;;
17993;SDS011;9122;48.406;9.984;2023-08-06T03:12:19;4.13;;;3.90;;
17993;SDS011;9122;48.406;9.984;2023-08-06T03:15:04;3.67;;;3.37;;
17993;SDS011;9122;48.406;9.984;2023-08-06T03:17:49;6.63;;;4.07;;
17993;SDS011;9122;48.406;9.984;2023-08-06T03:20:34;4.20;;;3.87;;
17993;SDS011;9122;48.406;9.984;2023-08-06T03:23:18;4.53;;;4.23;;
17993;SDS011;9122;48.406;9.984;2023-08-06T03:26:06;3.97;;;3.67;;
17993;SDS011;9122;48.406;9.984;2023-08-06T03:28:50;4.93;;;4.40;;
17993;SDS011;9122;48.406;9.984;2023-08-06T03:31:35;4.70;;;4.23;;
17993;SDS011;9122;48.406;9.984;2023-08-06T03:34:19;4.70;;;4.30;;
17993;SDS011;9122;48.406;9.984;2023-08-06T03:37:03;4.40;;;4.10;;
17993;SDS011;9122;48.406;9.984;2023-08-06T03:39:48;4.53;;;4.23;;
17993;SDS011;9122;48.406;9.984;2023-08-06T03:42:32;5.30;;;3.87;;
17993;SDS011;9122;48.406;9.984;2023-08-06T03:45:17;5.47;;;5.07;;
17993;SDS011;9122;48.406;9.984;2023-08-06T03:48:01;5.27;;;4.87;;
17993;SDS011;9122;48.406;9.984;2023-08-06T03:50:46;4.30;;;4.00;;
17993;SDS011;9122;48.406;9.984;2023-08-06T03:53:30;6.53;;;4.07;;
17993;SDS011;9122;48.406;9.984;2023-08-06T03:56:15;5.03;;;4.63;;
17993;SDS011;9122;48.406;9.984;2023-08-06T03:58:59;4.30;;;4.00;;
17993;SDS011;9122;48.406;9.984;2023-08-06T04:01:43;5.27;;;4.77;;
17993;SDS011;9122;48.406;9.984;2023-08-06T04:04:28;4.77;;;4.47;;
17993;SDS011;9122;48.406;9.984;2023-08-06T04:07:13;6.70;;;4.50;;
17993;SDS011;9122;48.406;9.984;2023-08-06T04:09:58;5.43;;;4.93;;
17993;SDS011;9122;48.406;9.984;2023-08-06T04:12:44;5.40;;;5.00;;
17993;SDS011;9122;48.406;9.984;2023-08-06T04:15:28;5.10;;;4.47;;
17993;SDS011;9122;48.406;9.984;2023-08-06T04:18:12;4.80;;;4.40;;
17993;SDS011;9122;48.406;9.984;2023-08-06T04:20:57;5.23;;;4.53;;
17993;SDS011;9122;48.406;9.984;2023-08-06T04:23:42;5.90;;;5.07;;
17993;SDS011;9122;48.406;9.984;2023-08-06T04:26:26;4.60;;;4.10;;
17993;SDS011;9122;48.406;9.984;2023-08-06T04:29:10;4.60;;;4.10;;
17993;SDS011;9122;48.406;9.984;2023-08-06T04:31:55;4.70;;;4.27;;
17993;SDS011;9122;48.406;9.984;2023-08-06T04:34:39;3.97;;;3.67;;
17993;SDS011;9122;48.406;9.984;2023-08-06T04:37:24;4.90;;;4.60;;
17993;SDS011;9122;48.406;9.984;2023-08-06T04:40:09;4.07;;;3.77;;
17993;SDS011;9122;48.406;9.984;2023-08-06T04:42:54;4.20;;;3.77;;
17993;SDS011;9122;48.406;9.984;2023-08-06T04:45:38;3.53;;;3.20;;
17993;SDS011;9122;48.406;9.984;2023-08-06T04:48:30;3.83;;;3.43;;
17993;SDS011;9122;48.406;9.984;2023-08-06T04:51:14;4.33;;;4.03;;
17993;SDS011;9122;48.406;9.984;2023-08-06T04:53:58;3.70;;;3.40;;
17993;SDS011;9122;48.406;9.984;2023-08-06T04:56:42;4.20;;;3.90;;
17993;SDS011;9122;48.406;9.984;2023-08-06T04:59:26;3.57;;;3.27;;
17993;SDS011;9122;48.406;9.984;2023-08-06T05:02:11;3.93;;;3.50;;
17993;SDS011;9122;48.406;9.984;2023-08-06T05:04:55;4.07;;;3.60;;
17993;SDS011;9122;48.406;9.984;2023-08-06T05:07:39;3.53;;;3.00;;
17993;SDS011;9122;48.406;9.984;2023-08-06T05:10:24;4.90;;;3.80;;
17993;SDS011;9122;48.406;9.984;2023-08-06T05:13:10;3.80;;;3.50;;
17993;SDS011;9122;48.406;9.984;2023-08-06T05:15:54;3.87;;;3.50;;
17993;SDS011;9122;48.406;9.984;2023-08-06T05:18:39;4.43;;;3.50;;
17993;SDS011;9122;48.406;9.984;2023-08-06T05:21:24;7.57;;;3.63;;
17993;SDS011;9122;48.406;9.984;2023-08-06T05:24:08;4.10;;;3.00;;
17993;SDS011;9122;48.406;9.984;2023-08-06T05:26:53;5.03;;;3.73;;
17993;SDS011;9122;48.406;9.984;2023-08-06T05:29:38;3.70;;;3.03;;
17993;SDS011;9122;48.406;9.984;2023-08-06T05:32:22;3.50;;;3.20;;
17993;SDS011;9122;48.406;9.984;2023-08-06T05:35:07;4.47;;;3.27;;
17993;SDS011;9122;48.406;9.984;2023-08-06T05:37:52;5.23;;;3.43;;
17993;SDS011;9122;48.406;9.984;2023-08-06T05:40:36;4.13;;;2.93;;
17993;SDS011;9122;48.406;9.984;2023-08-06T05:43:22;3.53;;;3.17;;
17993;SDS011;9122;48.406;9.984;2023-08-06T05:46:06;3.87;;;3.57;;
17993;SDS011;9122;48.406;9.984;2023-08-06T05:48:51;4.47;;;3.43;;
17993;SDS011;9122;48.406;9.984;2023-08-06T05:51:36;3.53;;;3.00;;
17993;SDS011;9122;48.406;9.984;2023-08-06T05:54:20;4.40;;;3.70;;
17993;SDS011;9122;48.406;9.984;2023-08-06T05:57:05;3.90;;;3.60;;
17993;SDS011;9122;48.406;9.984;2023-08-06T05:59:49;4.80;;;3.50;;
17993;SDS011;9122;48.406;9.984;2023-08-06T06:02:33;4.23;;;3.83;;
17993;SDS011;9122;48.406;9.984;2023-08-06T06:05:18;3.43;;;3.03;;
17993;SDS011;9122;48.406;9.984;2023-08-06T06:08:03;3.50;;;3.30;;
17993;SDS011;9122;48.406;9.984;2023-08-06T06:10:47;3.47;;;3.23;;
17993;SDS011;9122;48.406;9.984;2023-08-06T06:13:31;3.40;;;3.10;;
17993;SDS011;9122;48.406;9.984;2023-08-06T06:16:15;3.50;;;3.20;;
17993;SDS011;9122;48.406;9.984;2023-08-06T06:19:00;3.40;;;3.10;;
17993;SDS011;9122;48.406;9.984;2023-08-06T06:21:44;2.73;;;2.53;;
17993;SDS011;9122;48.406;9.984;2023-08-06T06:24:28;3.40;;;3.10;;
17993;SDS011;9122;48.406;9.984;2023-08-06T06:27:12;2.63;;;2.40;;
17993;SDS011;9122;48.406;9.984;2023-08-06T06:29:56;2.93;;;2.67;;
17993;SDS011;9122;48.406;9.984;2023-08-06T06:32:41;2.33;;;2.13;;
17993;SDS011;9122;48.406;9.984;2023-08-06T06:35:31;2.33;;;2.13;;
17993;SDS011;9122;48.406;9.984;2023-08-06T06:38:16;1.97;;;1.87;;
17993;SDS011;9122;48.406;9.984;2023-08-06T06:41:00;2.90;;;2.33;;
17993;SDS011;9122;48.406;9.984;2023-08-06T06:43:47;2.20;;;2.03;;
17993;SDS011;9122;48.406;9.984;2023-08-06T06:46:31;4.47;;;2.33;;
17993;SDS011;9122;48.406;9.984;2023-08-06T06:49:16;2.73;;;2.13;;
17993;SDS011;9122;48.406;9.984;2023-08-06T06:52:01;1.87;;;1.77;;
17993;SDS011;9122;48.406;9.984;2023-08-06T06:54:45;2.33;;;1.80;;
17993;SDS011;9122;48.406;9.984;2023-08-06T06:57:30;1.53;;;1.43;;
17993;SDS011;9122;48.406;9.984;2023-08-06T07:00:15;1.77;;;1.67;;
17993;SDS011;9122;48.406;9.984;2023-08-06T07:03:05;3.10;;;1.47;;
17993;SDS011;9122;48.406;9.984;2023-08-06T07:05:49;1.30;;;1.20;;
17993;SDS011;9122;48.406;9.984;2023-08-06T07:08:35;1.67;;;1.57;;
17993;SDS011;9122;48.406;9.984;2023-08-06T07:11:19;1.53;;;1.43;;
17993;SDS011;9122;48.406;9.984;2023-08-06T07:14:04;1.00;;;1.00;;
17993;SDS011;9122;48.406;9.984;2023-08-06T07:16:49;1.30;;;1.20;;
17993;SDS011;9122;48.406;9.984;2023-08-06T07:19:33;1.47;;;1.20;;
17993;SDS011;9122;48.406;9.984;2023-08-06T07:22:18;1.27;;;1.17;;
17993;SDS011;9122;48.406;9.984;2023-08-06T07:25:02;1.53;;;1.33;;
17993;SDS011;9122;48.406;9.984;2023-08-06T07:27:47;1.20;;;1.10;;
17993;SDS011;9122;48.406;9.984;2023-08-06T07:30:32;1.73;;;1.20;;
17993;SDS011;9122;48.406;9.984;2023-08-06T07:33:16;1.83;;;1.10;;
17993;SDS011;9122;48.406;9.984;2023-08-06T07:36:07;0.80;;;0.80;;
17993;SDS011;9122;48.406;9.984;2023-08-06T07:38:55;0.90;;;0.90;;
17993;SDS011;9122;48.406;9.984;2023-08-06T07:41:40;0.70;;;0.70;;
17993;SDS011;9122;48.406;9.984;2023-08-06T07:44:25;0.40;;;0.40;;
17993;SDS011;9122;48.406;9.984;2023-08-06T07:47:09;0.60;;;0.60;;
17993;SDS011;9122;48.406;9.984;2023-08-06T07:49:53;0.30;;;0.30;;
17993;SDS011;9122;48.406;9.984;2023-08-06T07:52:38;0.70;;;0.70;;
17993;SDS011;9122;48.406;9.984;2023-08-06T07:55:22;0.40;;;0.40;;
17993;SDS011;9122;48.406;9.984;2023-08-06T07:58:07;0.40;;;0.40;;
17993;SDS011;9122;48.406;9.984;2023-08-06T08:00:51;0.23;;;0.20;;
17993;SDS011;9122;48.406;9.984;2023-08-06T08:03:38;1.60;;;0.20;;
17993;SDS011;9122;48.406;9.984;2023-08-06T08:06:23;0.30;;;0.30;;
17993;SDS011;9122;48.406;9.984;2023-08-06T08:09:08;0.20;;;0.10;;
17993;SDS011;9122;48.406;9.984;2023-08-06T08:11:53;0.10;;;0.10;;
17993;SDS011;9122;48.406;9.984;2023-08-06T08:14:37;0.20;;;0.20;;
17993;SDS011;9122;48.406;9.984;2023-08-06T08:17:22;0.27;;;0.27;;
17993;SDS011;9122;48.406;9.984;2023-08-06T08:20:07;0.13;;;0.13;;
17993;SDS011;9122;48.406;9.984;2023-08-06T08:22:51;0.40;;;0.40;;
17993;SDS011;9122;48.406;9.984;2023-08-06T08:25:36;0.23;;;0.20;;
17993;SDS011;9122;48.406;9.984;2023-08-06T08:28:20;0.20;;;0.20;;
17993;SDS011;9122;48.406;9.984;2023-08-06T08:31:07;0.20;;;0.20;;
17993;SDS011;9122;48.406;9.984;2023-08-06T08:33:53;0.30;;;0.30;;
17993;SDS011;9122;48.406;9.984;2023-08-06T08:36:37;0.33;;;0.20;;
17993;SDS011;9122;48.406;9.984;2023-08-06T08:39:23;0.30;;;0.30;;
17993;SDS011;9122;48.406;9.984;2023-08-06T08:42:08;0.10;;;0.10;;
17993;SDS011;9122;48.406;9.984;2023-08-06T08:44:54;0.37;;;0.30;;
17993;SDS011;9122;48.406;9.984;2023-08-06T08:47:40;0.20;;;0.20;;
17993;SDS011;9122;48.406;9.984;2023-08-06T08:50:25;0.40;;;0.40;;
17993;SDS011;9122;48.406;9.984;2023-08-06T08:53:10;1.30;;;0.20;;
17993;SDS011;9122;48.406;9.984;2023-08-06T08:55:56;0.20;;;0.20;;
17993;SDS011;9122;48.406;9.984;2023-08-06T08:58:41;0.20;;;0.20;;
17993;SDS011;9122;48.406;9.984;2023-08-06T09:01:26;0.57;;;0.10;;
17993;SDS011;9122;48.406;9.984;2023-08-06T09:04:12;0.20;;;0.20;;
17993;SDS011;9122;48.406;9.984;2023-08-06T09:06:57;0.30;;;0.30;;
17993;SDS011;9122;48.406;9.984;2023-08-06T09:09:43;0.60;;;0.40;;
17993;SDS011;9122;48.406;9.984;2023-08-06T09:12:30;0.20;;;0.20;;
17993;SDS011;9122;48.406;9.984;2023-08-06T09:15:14;0.87;;;0.40;;
17993;SDS011;9122;48.406;9.984;2023-08-06T09:17:58;0.50;;;0.10;;
17993;SDS011;9122;48.406;9.984;2023-08-06T09:20:44;0.27;;;0.27;;
17993;SDS011;9122;48.406;9.984;2023-08-06T09:23:28;0.30;;;0.20;;
17993;SDS011;9122;48.406;9.984;2023-08-06T09:26:14;0.23;;;0.23;;
17993;SDS011;9122;48.406;9.984;2023-08-06T09:28:58;0.20;;;0.20;;
17993;SDS011;9122;48.406;9.984;2023-08-06T09:31:44;0.90;;;0.23;;
17993;SDS011;9122;48.406;9.984;2023-08-06T09:34:29;0.37;;;0.37;;
17993;SDS011;9122;48.406;9.984;2023-08-06T09:37:14;0.73;;;0.20;;
17993;SDS011;9122;48.406;9.984;2023-08-06T09:39:59;0.20;;;0.20;;
17993;SDS011;9122;48.406;9.984;2023-08-06T09:42:51;0.73;;;0.17;;
17993;SDS011;9122;48.406;9.984;2023-08-06T09:45:36;0.10;;;0.10;;
17993;SDS011;9122;48.406;9.984;2023-08-06T09:48:21;0.40;;;0.40;;
17993;SDS011;9122;48.406;9.984;2023-08-06T09:51:08;0.30;;;0.30;;
17993;SDS011;9122;48.406;9.984;2023-08-06T09:53:54;1.00;;;0.70;;
17993;SDS011;9122;48.406;9.984;2023-08-06T09:56:39;4.20;;;0.50;;
17993;SDS011;9122;48.406;9.984;2023-08-06T09:59:26;0.20;;;0.20;;
17993;SDS011;9122;48.406;9.984;2023-08-06T10:02:12;0.70;;;0.57;;
17993;SDS011;9122;48.406;9.984;2023-08-06T10:04:57;0.60;;;0.50;;
17993;SDS011;9122;48.406;9.984;2023-08-06T10:07:44;0.73;;;0.50;;
17993;SDS011;9122;48.406;9.984;2023-08-06T10:10:31;0.70;;;0.50;;
17993;SDS011;9122;48.406;9.984;2023-08-06T10:13:16;0.37;;;0.37;;
17993;SDS011;9122;48.406;9.984;2023-08-06T10:16:04;0.43;;;0.43;;
17993;SDS011;9122;48.406;9.984;2023-08-06T10:18:49;0.63;;;0.40;;
17993;SDS011;9122;48.406;9.984;2023-08-06T10:21:34;0.70;;;0.50;;
17993;SDS011;9122;48.406;9.984;2023-08-06T10:24:19;0.73;;;0.73;;
17993;SDS011;9122;48.406;9.984;2023-08-06T10:27:03;0.57;;;0.57;;
17993;SDS011;9122;48.406;9.984;2023-08-06T10:29:48;0.30;;;0.30;;
17993;SDS011;9122;48.406;9.984;2023-08-06T10:32:46;0.50;;;0.50;;
17993;SDS011;9122;48.406;9.984;2023-08-06T10:38:22;0.30;;;0.30;;
17993;SDS011;9122;48.406;9.984;2023-08-06T10:41:26;0.40;;;0.30;;
17993;SDS011;9122;48.406;9.984;2023-08-06T10:44:12;0.40;;;0.40;;
17993;SDS011;9122;48.406;9.984;2023-08-06T10:46:59;0.50;;;0.50;;
17993;SDS011;9122;48.406;9.984;2023-08-06T10:50:15;0.40;;;0.40;;
17993;SDS011;9122;48.406;9.984;2023-08-06T10:53:03;0.77;;;0.33;;
17993;SDS011;9122;48.406;9.984;2023-08-06T10:55:50;0.30;;;0.30;;
17993;SDS011;9122;48.406;9.984;2023-08-06T10:58:34;0.23;;;0.23;;
17993;SDS011;9122;48.406;9.984;2023-08-06T11:01:19;0.30;;;0.30;;
17993;SDS011;9122;48.406;9.984;2023-08-06T11:04:05;0.50;;;0.30;;
17993;SDS011;9122;48.406;9.984;2023-08-06T11:06:53;0.13;;;0.13;;
17993;SDS011;9122;48.406;9.984;2023-08-06T11:09:38;0.27;;;0.27;;
17993;SDS011;9122;48.406;9.984;2023-08-06T11:12:22;0.10;;;0.10;;
17993;SDS011;9122;48.406;9.984;2023-08-06T11:15:07;0.30;;;0.10;;
17993;SDS011;9122;48.406;9.984;2023-08-06T11:17:52;0.20;;;0.20;;
17993;SDS011;9122;48.406;9.984;2023-08-06T11:20:37;0.33;;;0.33;;
17993;SDS011;9122;48.406;9.984;2023-08-06T11:23:22;0.20;;;0.20;;
17993;SDS011;9122;48.406;9.984;2023-08-06T11:26:07;0.63;;;0.30;;
17993;SDS011;9122;48.406;9.984;2023-08-06T11:28:51;0.30;;;0.20;;
17993;SDS011;9122;48.406;9.984;2023-08-06T11:31:36;2.53;;;0.50;;
17993;SDS011;9122;48.406;9.984;2023-08-06T11:34:21;0.27;;;0.27;;
17993;SDS011;9122;48.406;9.984;2023-08-06T11:37:05;0.30;;;0.30;;
17993;SDS011;9122;48.406;9.984;2023-08-06T11:39:52;0.77;;;0.20;;
17993;SDS011;9122;48.406;9.984;2023-08-06T11:42:37;1.07;;;0.20;;
17993;SDS011;9122;48.406;9.984;2023-08-06T11:45:23;0.17;;;0.17;;
17993;SDS011;9122;48.406;9.984;2023-08-06T11:48:08;1.03;;;0.27;;
17993;SDS011;9122;48.406;9.984;2023-08-06T11:50:56;0.40;;;0.40;;
17993;SDS011;9122;48.406;9.984;2023-08-06T11:53:51;0.10;;;0.10;;
17993;SDS011;9122;48.406;9.984;2023-08-06T11:56:42;0.30;;;0.30;;
17993;SDS011;9122;48.406;9.984;2023-08-06T11:59:26;0.63;;;0.53;;
17993;SDS011;9122;48.406;9.984;2023-08-06T12:02:15;0.67;;;0.40;;
17993;SDS011;9122;48.406;9.984;2023-08-06T12:05:04;0.20;;;0.20;;
17993;SDS011;9122;48.406;9.984;2023-08-06T12:08:04;0.20;;;0.20;;
17993;SDS011;9122;48.406;9.984;2023-08-06T12:10:49;0.20;;;0.20;;
17993;SDS011;9122;48.406;9.984;2023-08-06T12:13:35;0.87;;;0.20;;
17993;SDS011;9122;48.406;9.984;2023-08-06T12:16:20;0.30;;;0.20;;
17993;SDS011;9122;48.406;9.984;2023-08-06T12:19:08;0.20;;;0.20;;
17993;SDS011;9122;48.406;9.984;2023-08-06T12:21:53;1.40;;;0.20;;
17993;SDS011;9122;48.406;9.984;2023-08-06T12:24:37;0.20;;;0.20;;
17993;SDS011;9122;48.406;9.984;2023-08-06T12:27:22;1.40;;;0.20;;
17993;SDS011;9122;48.406;9.984;2023-08-06T12:30:06;1.40;;;0.10;;
17993;SDS011;9122;48.406;9.984;2023-08-06T12:32:51;0.10;;;0.10;;
17993;SDS011;9122;48.406;9.984;2023-08-06T12:35:35;0.10;;;0.10;;
17993;SDS011;9122;48.406;9.984;2023-08-06T12:38:22;0.27;;;0.10;;
17993;SDS011;9122;48.406;9.984;2023-08-06T12:41:06;1.17;;;0.20;;
17993;SDS011;9122;48.406;9.984;2023-08-06T12:43:51;1.00;;;0.30;;
17993;SDS011;9122;48.406;9.984;2023-08-06T12:46:37;0.30;;;0.23;;
17993;SDS011;9122;48.406;9.984;2023-08-06T12:49:21;0.30;;;0.30;;
17993;SDS011;9122;48.406;9.984;2023-08-06T12:52:06;0.20;;;0.20;;
17993;SDS011;9122;48.406;9.984;2023-08-06T12:54:51;0.40;;;0.40;;
17993;SDS011;9122;48.406;9.984;2023-08-06T12:57:36;0.40;;;0.40;;
17993;SDS011;9122;48.406;9.984;2023-08-06T13:00:21;0.13;;;0.13;;
17993;SDS011;9122;48.406;9.984;2023-08-06T13:03:05;0.20;;;0.20;;
17993;SDS011;9122;48.406;9.984;2023-08-06T13:05:50;0.73;;;0.43;;
17993;SDS011;9122;48.406;9.984;2023-08-06T13:08:35;0.10;;;0.10;;
17993;SDS011;9122;48.406;9.984;2023-08-06T13:11:19;0.30;;;0.30;;
17993;SDS011;9122;48.406;9.984;2023-08-06T13:14:08;0.30;;;0.20;;
17993;SDS011;9122;48.406;9.984;2023-08-06T13:16:54;0.40;;;0.30;;
17993;SDS011;9122;48.406;9.984;2023-08-06T13:19:38;0.87;;;0.30;;
17993;SDS011;9122;48.406;9.984;2023-08-06T13:22:23;0.20;;;0.20;;
17993;SDS011;9122;48.406;9.984;2023-08-06T13:25:08;1.77;;;0.50;;
17993;SDS011;9122;48.406;9.984;2023-08-06T13:27:52;0.40;;;0.40;;
17993;SDS011;9122;48.406;9.984;2023-08-06T13:30:38;0.40;;;0.40;;
17993;SDS011;9122;48.406;9.984;2023-08-06T13:33:25;0.60;;;0.60;;
17993;SDS011;9122;48.406;9.984;2023-08-06T13:36:10;0.60;;;0.60;;
17993;SDS011;9122;48.406;9.984;2023-08-06T13:38:54;0.53;;;0.50;;
17993;SDS011;9122;48.406;9.984;2023-08-06T13:41:39;0.53;;;0.50;;
17993;SDS011;9122;48.406;9.984;2023-08-06T13:44:24;0.67;;;0.67;;
17993;SDS011;9122;48.406;9.984;2023-08-06T13:47:09;0.47;;;0.47;;
17993;SDS011;9122;48.406;9.984;2023-08-06T13:49:53;0.37;;;0.37;;
17993;SDS011;9122;48.406;9.984;2023-08-06T13:52:39;0.50;;;0.50;;
17993;SDS011;9122;48.406;9.984;2023-08-06T13:55:24;0.50;;;0.50;;
17993;SDS011;9122;48.406;9.984;2023-08-06T13:58:10;0.80;;;0.80;;
17993;SDS011;9122;48.406;9.984;2023-08-06T14:00:54;1.10;;;1.10;;
17993;SDS011;9122;48.406;9.984;2023-08-06T14:03:39;0.80;;;0.80;;
17993;SDS011;9122;48.406;9.984;2023-08-06T14:06:23;0.90;;;0.90;;
17993;SDS011;9122;48.406;9.984;2023-08-06T14:09:09;2.37;;;2.17;;
17993;SDS011;9122;48.406;9.984;2023-08-06T14:11:56;0.83;;;0.83;;
17993;SDS011;9122;48.406;9.984;2023-08-06T14:14:40;1.87;;;1.33;;
17993;SDS011;9122;48.406;9.984;2023-08-06T14:17:25;1.13;;;1.03;;
17993;SDS011;9122;48.406;9.984;2023-08-06T14:20:10;0.87;;;0.87;;
17993;SDS011;9122;48.406;9.984;2023-08-06T14:22:55;0.50;;;0.50;;
17993;SDS011;9122;48.406;9.984;2023-08-06T14:25:40;1.07;;;0.50;;
17993;SDS011;9122;48.406;9.984;2023-08-06T14:28:24;0.67;;;0.67;;
17993;SDS011;9122;48.406;9.984;2023-08-06T14:31:09;0.50;;;0.50;;
17993;SDS011;9122;48.406;9.984;2023-08-06T14:33:53;0.57;;;0.57;;
17993;SDS011;9122;48.406;9.984;2023-08-06T14:36:39;0.50;;;0.50;;
17993;SDS011;9122;48.406;9.984;2023-08-06T14:39:23;0.50;;;0.50;;
17993;SDS011;9122;48.406;9.984;2023-08-06T14:42:08;0.33;;;0.33;;
17993;SDS011;9122;48.406;9.984;2023-08-06T14:44:53;0.40;;;0.40;;
17993;SDS011;9122;48.406;9.984;2023-08-06T14:47:40;0.40;;;0.40;;
17993;SDS011;9122;48.406;9.984;2023-08-06T14:50:25;0.43;;;0.43;;
17993;SDS011;9122;48.406;9.984;2023-08-06T14:53:09;1.30;;;0.40;;
17993;SDS011;9122;48.406;9.984;2023-08-06T14:55:55;1.17;;;0.40;;
17993;SDS011;9122;48.406;9.984;2023-08-06T14:58:42;0.70;;;0.70;;
17993;SDS011;9122;48.406;9.984;2023-08-06T15:01:26;0.50;;;0.50;;
17993;SDS011;9122;48.406;9.984;2023-08-06T15:04:11;0.50;;;0.50;;
17993;SDS011;9122;48.406;9.984;2023-08-06T15:06:55;0.80;;;0.80;;
17993;SDS011;9122;48.406;9.984;2023-08-06T15:09:39;0.60;;;0.60;;
17993;SDS011;9122;48.406;9.984;2023-08-06T15:12:24;0.37;;;0.37;;
17993;SDS011;9122;48.406;9.984;2023-08-06T15:15:08;0.40;;;0.40;;
17993;SDS011;9122;48.406;9.984;2023-08-06T15:17:52;0.40;;;0.40;;
17993;SDS011;9122;48.406;9.984;2023-08-06T15:20:36;0.20;;;0.20;;
17993;SDS011;9122;48.406;9.984;2023-08-06T15:23:24;0.23;;;0.23;;
17993;SDS011;9122;48.406;9.984;2023-08-06T15:26:09;0.73;;;0.73;;
17993;SDS011;9122;48.406;9.984;2023-08-06T15:28:54;0.50;;;0.50;;
17993;SDS011;9122;48.406;9.984;2023-08-06T15:31:40;0.60;;;0.60;;
17993;SDS011;9122;48.406;9.984;2023-08-06T15:34:25;0.57;;;0.40;;
17993;SDS011;9122;48.406;9.984;2023-08-06T15:37:10;0.50;;;0.50;;
17993;SDS011;9122;48.406;9.984;2023-08-06T15:39:54;0.30;;;0.30;;
17993;SDS011;9122;48.406;9.984;2023-08-06T15:42:39;0.37;;;0.37;;
17993;SDS011;9122;48.406;9.984;2023-08-06T15:45:25;0.50;;;0.50;;
17993;SDS011;9122;48.406;9.984;2023-08-06T15:48:11;1.43;;;0.60;;
17993;SDS011;9122;48.406;9.984;2023-08-06T15:50:55;0.30;;;0.30;;
17993;SDS011;9122;48.406;9.984;2023-08-06T15:53:41;0.40;;;0.40;;
17993;SDS011;9122;48.406;9.984;2023-08-06T15:56:26;0.33;;;0.33;;
17993;SDS011;9122;48.406;9.984;2023-08-06T16:02:25;0.30;;;0.30;;
17993;SDS011;9122;48.406;9.984;2023-08-06T16:05:11;1.07;;;0.20;;
17993;SDS011;9122;48.406;9.984;2023-08-06T16:07:56;0.40;;;0.40;;
17993;SDS011;9122;48.406;9.984;2023-08-06T16:10:41;0.37;;;0.37;;
17993;SDS011;9122;48.406;9.984;2023-08-06T16:13:28;0.50;;;0.50;;
17993;SDS011;9122;48.406;9.984;2023-08-06T16:16:12;0.37;;;0.30;;
17993;SDS011;9122;48.406;9.984;2023-08-06T16:18:56;0.30;;;0.30;;
17993;SDS011;9122;48.406;9.984;2023-08-06T16:21:41;0.83;;;0.53;;
17993;SDS011;9122;48.406;9.984;2023-08-06T16:24:26;1.90;;;0.70;;
17993;SDS011;9122;48.406;9.984;2023-08-06T16:27:11;2.63;;;0.60;;
17993;SDS011;9122;48.406;9.984;2023-08-06T16:29:58;0.57;;;0.57;;
17993;SDS011;9122;48.406;9.984;2023-08-06T16:32:43;0.37;;;0.37;;
17993;SDS011;9122;48.406;9.984;2023-08-06T16:35:27;0.73;;;0.73;;
17993;SDS011;9122;48.406;9.984;2023-08-06T16:38:13;0.70;;;0.60;;
17993;SDS011;9122;48.406;9.984;2023-08-06T16:40:59;0.40;;;0.40;;
17993;SDS011;9122;48.406;9.984;2023-08-06T16:43:44;0.47;;;0.47;;
17993;SDS011;9122;48.406;9.984;2023-08-06T16:46:28;0.70;;;0.70;;
17993;SDS011;9122;48.406;9.984;2023-08-06T16:49:13;1.30;;;0.70;;
17993;SDS011;9122;48.406;9.984;2023-08-06T16:51:57;0.73;;;0.50;;
17993;SDS011;9122;48.406;9.984;2023-08-06T16:54:41;0.53;;;0.53;;
17993;SDS011;9122;48.406;9.984;2023-08-06T16:57:26;0.50;;;0.50;;
17993;SDS011;9122;48.406;9.984;2023-08-06T17:00:11;0.50;;;0.50;;
17993;SDS011;9122;48.406;9.984;2023-08-06T17:02:56;1.23;;;0.47;;
17993;SDS011;9122;48.406;9.984;2023-08-06T17:05:40;0.30;;;0.30;;